weather.gov     
National Weather Service

Terminal Aerodrome Forecast
NWS Homepage
This page is being discontinued on March 12, 2014.
The same data is available at this site. Please update your bookmarks.
Thank you, and we apologize for the inconvenience.
Please send an email to SR-SRH.Webmaster@noaa.gov with any concerns.


Current Version
Previous Version:    01  02  03  04  05  06  07  08  09  10  11  12  13  14  15  16  17  18  19  20  21  22  23  24  25  26  27  
[Printable]
823
FTUS42 KILM 242300
TAFMYR
TAF
KMYR 242331Z 2500/2524 13008KT P6SM SCT040 SCT250
     FM250500 15006KT P6SM SCT020 BKN035
     FM250800 17006KT P6SM VCSH BKN020 BKN035 BKN080
     FM251400 19012G18KT P6SM VCSH SCT015 BKN035
     FM251700 19015G26KT 6SM -SHRA BKN020 BKN040
     FM252000 21018G28KT P6SM VCSH SCT020 BKN050
      AMD LTD TO CLD VIS AND WIND 2504/2511=


U.S. Dept. of Commerce
NOAA National Weather Service
1325 East West Highway
Silver Spring, MD 20910
E-mail: w-nws.webmaster@noaa.gov
Page last modified: May 16, 2007
NATIONAL WEATHER SERVICE: for Safety, for Work, for Fun - FOR LIFE